Flinthill, Missouri
Current Conditions -  °F | °C
As of 1:54 AM on Wednesday 26 Nov 2014 (Local Time) from KSUS Reporting Station
Clear Clear  
Wind Chill: 24°   Ceiling: Unl
Heat Index: 24°   Visibility: 10mi
Dew Point: 21°   Wind: 0mph
Humidity: 88%   Direction: NA
Pressure: 30.1"   Gusts: NA
Location:  38.86°N, 90.86°W
Report Text: KSUS 260754Z AUTO 00000KT 10SM CLR M04/M06 A3010 RMK AO2 SLP200 T10441061
Loading
Personal Weather Stations






























Interactive Weather Map New forecast layout! Learn more

10-Day Weather Forecast

Advertisements
Track Severe Weather on mobile